sensor_id;sensor_type;location;lat;lon;timestamp;pressure;altitude;pressure_sealevel;temperature;humidity
73817;BME280;62146;53.232;-1.304;2022-07-11T00:00:51;101228.94;;;26.59;57.98
73817;BME280;62146;53.232;-1.304;2022-07-11T00:03:18;101232.47;;;26.59;58.30
73817;BME280;62146;53.232;-1.304;2022-07-11T00:05:44;101226.53;;;26.57;58.33
73817;BME280;62146;53.232;-1.304;2022-07-11T00:08:11;101231.97;;;26.57;58.52
73817;BME280;62146;53.232;-1.304;2022-07-11T00:10:38;101227.16;;;26.54;58.15
73817;BME280;62146;53.232;-1.304;2022-07-11T00:13:04;101231.66;;;26.50;57.88
73817;BME280;62146;53.232;-1.304;2022-07-11T00:15:31;101234.09;;;26.43;57.45
73817;BME280;62146;53.232;-1.304;2022-07-11T00:17:57;101225.78;;;26.40;57.61
73817;BME280;62146;53.232;-1.304;2022-07-11T00:20:24;101218.72;;;26.39;57.51
73817;BME280;62146;53.232;-1.304;2022-07-11T00:22:51;101225.63;;;26.36;57.61
73817;BME280;62146;53.232;-1.304;2022-07-11T00:25:17;101225.47;;;26.33;57.38
73817;BME280;62146;53.232;-1.304;2022-07-11T00:27:44;101233.13;;;26.31;57.61
73817;BME280;62146;53.232;-1.304;2022-07-11T00:30:16;101221.44;;;26.31;57.09
73817;BME280;62146;53.232;-1.304;2022-07-11T00:32:43;101224.50;;;26.29;56.80
73817;BME280;62146;53.232;-1.304;2022-07-11T00:35:10;101224.00;;;26.27;57.19
73817;BME280;62146;53.232;-1.304;2022-07-11T00:37:37;101220.81;;;26.25;57.10
73817;BME280;62146;53.232;-1.304;2022-07-11T00:40:05;101223.53;;;26.25;56.93
73817;BME280;62146;53.232;-1.304;2022-07-11T00:42:32;101224.19;;;26.22;56.87
73817;BME280;62146;53.232;-1.304;2022-07-11T00:44:58;101220.50;;;26.18;56.80
73817;BME280;62146;53.232;-1.304;2022-07-11T00:47:25;101211.22;;;26.19;56.36
73817;BME280;62146;53.232;-1.304;2022-07-11T00:49:52;101211.06;;;26.16;56.69
73817;BME280;62146;53.232;-1.304;2022-07-11T00:52:19;101206.75;;;26.15;56.49
73817;BME280;62146;53.232;-1.304;2022-07-11T00:54:46;101203.56;;;26.13;56.52
73817;BME280;62146;53.232;-1.304;2022-07-11T00:57:13;101201.94;;;26.12;56.58
73817;BME280;62146;53.232;-1.304;2022-07-11T00:59:40;101203.41;;;26.09;56.61
73817;BME280;62146;53.232;-1.304;2022-07-11T01:02:07;101205.63;;;26.08;56.50
73817;BME280;62146;53.232;-1.304;2022-07-11T01:04:34;101207.56;;;26.07;56.65
73817;BME280;62146;53.232;-1.304;2022-07-11T01:07:01;101214.72;;;26.03;56.63
73817;BME280;62146;53.232;-1.304;2022-07-11T01:09:28;101205.75;;;26.03;56.34
73817;BME280;62146;53.232;-1.304;2022-07-11T01:11:55;101216.97;;;26.01;56.24
73817;BME280;62146;53.232;-1.304;2022-07-11T01:14:22;101221.28;;;26.02;56.51
73817;BME280;62146;53.232;-1.304;2022-07-11T01:16:49;101221.94;;;25.99;56.47
73817;BME280;62146;53.232;-1.304;2022-07-11T01:19:17;101214.09;;;25.98;56.32
73817;BME280;62146;53.232;-1.304;2022-07-11T01:21:49;101217.91;;;25.97;56.35
73817;BME280;62146;53.232;-1.304;2022-07-11T01:24:15;101219.03;;;25.96;56.65
73817;BME280;62146;53.232;-1.304;2022-07-11T01:26:50;101222.41;;;25.93;56.01
73817;BME280;62146;53.232;-1.304;2022-07-11T01:29:17;101217.63;;;25.90;56.74
73817;BME280;62146;53.232;-1.304;2022-07-11T01:31:44;101214.91;;;25.90;55.97
73817;BME280;62146;53.232;-1.304;2022-07-11T01:34:11;101205.91;;;25.89;56.06
73817;BME280;62146;53.232;-1.304;2022-07-11T01:36:38;101193.78;;;25.87;56.77
73817;BME280;62146;53.232;-1.304;2022-07-11T01:39:05;101195.38;;;25.88;56.03
73817;BME280;62146;53.232;-1.304;2022-07-11T01:41:31;101200.00;;;25.87;56.30
73817;BME280;62146;53.232;-1.304;2022-07-11T01:43:58;101192.50;;;25.84;55.88
73817;BME280;62146;53.232;-1.304;2022-07-11T01:46:25;101192.81;;;25.83;56.38
73817;BME280;62146;53.232;-1.304;2022-07-11T01:48:52;101183.06;;;25.82;56.24
73817;BME280;62146;53.232;-1.304;2022-07-11T01:51:18;101187.22;;;25.80;56.08
73817;BME280;62146;53.232;-1.304;2022-07-11T01:53:45;101182.09;;;25.78;56.31
73817;BME280;62146;53.232;-1.304;2022-07-11T01:56:12;101185.94;;;25.77;56.03
73817;BME280;62146;53.232;-1.304;2022-07-11T01:58:45;101176.50;;;25.75;56.38
73817;BME280;62146;53.232;-1.304;2022-07-11T02:01:12;101169.94;;;25.76;55.91
73817;BME280;62146;53.232;-1.304;2022-07-11T02:03:39;101164.00;;;25.74;55.79
73817;BME280;62146;53.232;-1.304;2022-07-11T02:06:06;101174.41;;;25.72;56.13
73817;BME280;62146;53.232;-1.304;2022-07-11T02:08:33;101176.34;;;25.71;56.48
73817;BME280;62146;53.232;-1.304;2022-07-11T02:10:59;101176.00;;;25.73;56.59
73817;BME280;62146;53.232;-1.304;2022-07-11T02:13:26;101179.22;;;25.75;56.71
73817;BME280;62146;53.232;-1.304;2022-07-11T02:15:53;101172.66;;;25.76;56.75
73817;BME280;62146;53.232;-1.304;2022-07-11T02:18:20;101164.50;;;25.76;57.09
73817;BME280;62146;53.232;-1.304;2022-07-11T02:20:47;101166.09;;;25.77;57.39
73817;BME280;62146;53.232;-1.304;2022-07-11T02:23:18;101160.66;;;25.77;57.04
73817;BME280;62146;53.232;-1.304;2022-07-11T02:25:45;101162.75;;;25.80;57.27
73817;BME280;62146;53.232;-1.304;2022-07-11T02:28:12;101159.22;;;25.79;57.75
73817;BME280;62146;53.232;-1.304;2022-07-11T02:30:42;101160.19;;;25.75;57.93
73817;BME280;62146;53.232;-1.304;2022-07-11T02:33:10;101154.91;;;25.78;57.86
73817;BME280;62146;53.232;-1.304;2022-07-11T02:35:46;101145.47;;;25.76;58.09
73817;BME280;62146;53.232;-1.304;2022-07-11T02:38:13;101141.47;;;25.73;58.13
73817;BME280;62146;53.232;-1.304;2022-07-11T02:40:41;101143.88;;;25.75;58.26
73817;BME280;62146;53.232;-1.304;2022-07-11T02:43:08;101142.75;;;25.76;58.53
73817;BME280;62146;53.232;-1.304;2022-07-11T02:45:35;101137.31;;;25.76;58.22
73817;BME280;62146;53.232;-1.304;2022-07-11T02:48:03;101135.41;;;25.76;58.41
73817;BME280;62146;53.232;-1.304;2022-07-11T02:50:29;101131.88;;;25.76;58.20
73817;BME280;62146;53.232;-1.304;2022-07-11T02:52:56;101129.16;;;25.76;58.62
73817;BME280;62146;53.232;-1.304;2022-07-11T02:55:23;101133.31;;;25.73;58.63
73817;BME280;62146;53.232;-1.304;2022-07-11T02:57:49;101129.47;;;25.74;58.68
73817;BME280;62146;53.232;-1.304;2022-07-11T03:00:17;101143.38;;;25.73;58.91
73817;BME280;62146;53.232;-1.304;2022-07-11T03:02:44;101136.81;;;25.74;58.99
73817;BME280;62146;53.232;-1.304;2022-07-11T03:05:11;101140.22;;;25.71;58.56
73817;BME280;62146;53.232;-1.304;2022-07-11T03:07:39;101143.38;;;25.73;58.67
73817;BME280;62146;53.232;-1.304;2022-07-11T03:10:06;101133.31;;;25.73;58.77
73817;BME280;62146;53.232;-1.304;2022-07-11T03:12:33;101137.94;;;25.73;59.07
73817;BME280;62146;53.232;-1.304;2022-07-11T03:14:59;101136.81;;;25.74;58.85
73817;BME280;62146;53.232;-1.304;2022-07-11T03:17:26;101134.44;;;25.72;59.03
73817;BME280;62146;53.232;-1.304;2022-07-11T03:19:53;101132.84;;;25.71;58.84
73817;BME280;62146;53.232;-1.304;2022-07-11T03:22:20;101137.16;;;25.72;59.23
73817;BME280;62146;53.232;-1.304;2022-07-11T03:24:46;101129.78;;;25.73;59.21
73817;BME280;62146;53.232;-1.304;2022-07-11T03:27:13;101134.78;;;25.71;59.12
73817;BME280;62146;53.232;-1.304;2022-07-11T03:29:40;101145.66;;;25.71;59.44
73817;BME280;62146;53.232;-1.304;2022-07-11T03:32:08;101139.72;;;25.69;59.26
73817;BME280;62146;53.232;-1.304;2022-07-11T03:34:35;101137.78;;;25.69;59.28
73817;BME280;62146;53.232;-1.304;2022-07-11T03:37:02;101149.16;;;25.71;59.50
73817;BME280;62146;53.232;-1.304;2022-07-11T03:39:29;101142.44;;;25.69;59.44
73817;BME280;62146;53.232;-1.304;2022-07-11T03:41:56;101148.19;;;25.67;59.20
73817;BME280;62146;53.232;-1.304;2022-07-11T03:44:22;101140.84;;;25.68;59.67
73817;BME280;62146;53.232;-1.304;2022-07-11T03:46:49;101144.69;;;25.67;59.92
73817;BME280;62146;53.232;-1.304;2022-07-11T03:49:16;101149.28;;;25.66;59.29
73817;BME280;62146;53.232;-1.304;2022-07-11T03:51:42;101150.13;;;25.67;59.76
73817;BME280;62146;53.232;-1.304;2022-07-11T03:54:09;101137.00;;;25.69;59.49
73817;BME280;62146;53.232;-1.304;2022-07-11T03:56:35;101141.13;;;25.66;59.82
73817;BME280;62146;53.232;-1.304;2022-07-11T03:59:02;101138.75;;;25.65;60.13
73817;BME280;62146;53.232;-1.304;2022-07-11T04:01:28;101135.25;;;25.64;59.91
73817;BME280;62146;53.232;-1.304;2022-07-11T04:03:55;101136.53;;;25.67;59.48
73817;BME280;62146;53.232;-1.304;2022-07-11T04:06:22;101134.91;;;25.66;59.81
73817;BME280;62146;53.232;-1.304;2022-07-11T04:08:48;101129.81;;;25.64;59.96
73817;BME280;62146;53.232;-1.304;2022-07-11T04:11:15;101131.72;;;25.64;60.40
73817;BME280;62146;53.232;-1.304;2022-07-11T04:13:42;101126.28;;;25.64;59.68
73817;BME280;62146;53.232;-1.304;2022-07-11T04:16:09;101120.84;;;25.64;60.30
73817;BME280;62146;53.232;-1.304;2022-07-11T04:18:37;101126.59;;;25.62;59.80
73817;BME280;62146;53.232;-1.304;2022-07-11T04:21:03;101133.94;;;25.62;60.04
73817;BME280;62146;53.232;-1.304;2022-07-11T04:23:34;101128.34;;;25.58;60.19
73817;BME280;62146;53.232;-1.304;2022-07-11T04:26:00;101128.50;;;25.62;59.72
73817;BME280;62146;53.232;-1.304;2022-07-11T04:28:27;101123.72;;;25.59;60.54
73817;BME280;62146;53.232;-1.304;2022-07-11T04:30:53;101130.78;;;25.60;60.07
73817;BME280;62146;53.232;-1.304;2022-07-11T04:33:20;101134.59;;;25.59;60.23
73817;BME280;62146;53.232;-1.304;2022-07-11T04:35:46;101135.72;;;25.58;60.23
73817;BME280;62146;53.232;-1.304;2022-07-11T04:38:13;101131.56;;;25.60;60.75
73817;BME280;62146;53.232;-1.304;2022-07-11T04:40:39;101131.88;;;25.59;60.03
73817;BME280;62146;53.232;-1.304;2022-07-11T04:43:06;101138.75;;;25.56;60.14
73817;BME280;62146;53.232;-1.304;2022-07-11T04:45:33;101132.53;;;25.56;60.48
73817;BME280;62146;53.232;-1.304;2022-07-11T04:47:59;101127.72;;;25.53;60.69
73817;BME280;62146;53.232;-1.304;2022-07-11T04:50:28;101126.28;;;25.55;60.25
73817;BME280;62146;53.232;-1.304;2022-07-11T04:52:56;101125.47;;;25.55;60.92
73817;BME280;62146;53.232;-1.304;2022-07-11T04:55:22;101129.31;;;25.54;60.96
73817;BME280;62146;53.232;-1.304;2022-07-11T04:57:50;101135.53;;;25.54;60.64
73817;BME280;62146;53.232;-1.304;2022-07-11T05:00:17;101131.56;;;25.52;60.44
73817;BME280;62146;53.232;-1.304;2022-07-11T05:02:43;101135.09;;;25.53;60.73
73817;BME280;62146;53.232;-1.304;2022-07-11T05:05:10;101135.88;;;25.53;60.36
73817;BME280;62146;53.232;-1.304;2022-07-11T05:07:37;101138.59;;;25.53;60.97
73817;BME280;62146;53.232;-1.304;2022-07-11T05:10:04;101137.00;;;25.52;60.81
73817;BME280;62146;53.232;-1.304;2022-07-11T05:12:31;101129.47;;;25.49;60.56
73817;BME280;62146;53.232;-1.304;2022-07-11T05:14:58;101135.72;;;25.50;60.96
73817;BME280;62146;53.232;-1.304;2022-07-11T05:17:28;101131.69;;;25.47;60.92
73817;BME280;62146;53.232;-1.304;2022-07-11T05:19:55;101133.63;;;25.47;61.01
73817;BME280;62146;53.232;-1.304;2022-07-11T05:22:22;101137.47;;;25.46;61.06
73817;BME280;62146;53.232;-1.304;2022-07-11T05:24:49;101139.84;;;25.47;60.72
73817;BME280;62146;53.232;-1.304;2022-07-11T05:27:15;101142.56;;;25.47;61.04
73817;BME280;62146;53.232;-1.304;2022-07-11T05:29:43;101137.13;;;25.47;61.23
73817;BME280;62146;53.232;-1.304;2022-07-11T05:32:10;101132.19;;;25.49;60.84
73817;BME280;62146;53.232;-1.304;2022-07-11T05:34:37;101137.13;;;25.47;61.27
73817;BME280;62146;53.232;-1.304;2022-07-11T05:37:04;101140.69;;;25.48;61.45
73817;BME280;62146;53.232;-1.304;2022-07-11T05:39:30;101134.13;;;25.49;61.13
73817;BME280;62146;53.232;-1.304;2022-07-11T05:41:57;101136.03;;;25.48;61.41
73817;BME280;62146;53.232;-1.304;2022-07-11T05:44:23;101138.44;;;25.50;60.86
73817;BME280;62146;53.232;-1.304;2022-07-11T05:46:50;101133.00;;;25.50;61.65
73817;BME280;62146;53.232;-1.304;2022-07-11T05:49:17;101137.63;;;25.49;61.46
73817;BME280;62146;53.232;-1.304;2022-07-11T05:51:43;101137.31;;;25.51;61.86
73817;BME280;62146;53.232;-1.304;2022-07-11T05:54:10;101137.31;;;25.51;61.37
73817;BME280;62146;53.232;-1.304;2022-07-11T05:56:37;101140.34;;;25.49;61.52
73817;BME280;62146;53.232;-1.304;2022-07-11T05:59:03;101137.63;;;25.49;61.91
73817;BME280;62146;53.232;-1.304;2022-07-11T06:01:30;101140.81;;;25.51;62.35
73817;BME280;62146;53.232;-1.304;2022-07-11T06:04:02;101146.25;;;25.51;61.92
73817;BME280;62146;53.232;-1.304;2022-07-11T06:06:29;101145.78;;;25.49;62.46
73817;BME280;62146;53.232;-1.304;2022-07-11T06:08:57;101144.66;;;25.50;62.09
73817;BME280;62146;53.232;-1.304;2022-07-11T06:11:23;101141.94;;;25.50;62.08
73817;BME280;62146;53.232;-1.304;2022-07-11T06:13:50;101143.06;;;25.49;62.42
73817;BME280;62146;53.232;-1.304;2022-07-11T06:16:24;101145.47;;;25.51;63.06
73817;BME280;62146;53.232;-1.304;2022-07-11T06:18:50;101148.97;;;25.51;62.85
73817;BME280;62146;53.232;-1.304;2022-07-11T06:21:17;101142.44;;;25.52;63.02
73817;BME280;62146;53.232;-1.304;2022-07-11T06:23:45;101145.94;;;25.53;63.37
73817;BME280;62146;53.232;-1.304;2022-07-11T06:26:12;101145.63;;;25.54;62.98
73817;BME280;62146;53.232;-1.304;2022-07-11T06:28:41;101147.88;;;25.52;63.09
73817;BME280;62146;53.232;-1.304;2022-07-11T06:31:08;101143.22;;;25.53;63.41
73817;BME280;62146;53.232;-1.304;2022-07-11T06:33:35;101147.88;;;25.52;63.36
73817;BME280;62146;53.232;-1.304;2022-07-11T06:36:02;101142.09;;;25.54;63.51
73817;BME280;62146;53.232;-1.304;2022-07-11T06:38:30;101146.41;;;25.54;63.76
73817;BME280;62146;53.232;-1.304;2022-07-11T06:40:57;101155.38;;;25.55;63.61
73817;BME280;62146;53.232;-1.304;2022-07-11T06:43:24;101147.72;;;25.57;63.90
73817;BME280;62146;53.232;-1.304;2022-07-11T06:45:51;101149.94;;;25.55;63.89
73817;BME280;62146;53.232;-1.304;2022-07-11T06:48:18;101146.91;;;25.56;63.94
73817;BME280;62146;53.232;-1.304;2022-07-11T06:50:47;101153.16;;;25.57;64.02
73817;BME280;62146;53.232;-1.304;2022-07-11T06:53:14;101152.81;;;25.58;64.27
73817;BME280;62146;53.232;-1.304;2022-07-11T06:55:41;101147.38;;;25.58;63.07
73817;BME280;62146;53.232;-1.304;2022-07-11T06:58:08;101152.66;;;25.55;63.05
73817;BME280;62146;53.232;-1.304;2022-07-11T07:00:50;101155.38;;;25.55;63.32
73817;BME280;62146;53.232;-1.304;2022-07-11T07:03:17;101151.56;;;25.56;62.63
73817;BME280;62146;53.232;-1.304;2022-07-11T07:05:46;101156.66;;;25.57;63.64
73817;BME280;62146;53.232;-1.304;2022-07-11T07:08:16;101153.94;;;25.66;63.94
73817;BME280;62146;53.232;-1.304;2022-07-11T07:10:43;101153.31;;;25.69;63.68
73817;BME280;62146;53.232;-1.304;2022-07-11T07:13:09;101147.41;;;25.75;64.12
73817;BME280;62146;53.232;-1.304;2022-07-11T07:15:36;101149.47;;;25.78;65.24
73817;BME280;62146;53.232;-1.304;2022-07-11T07:18:03;101145.63;;;25.87;64.42
73817;BME280;62146;53.232;-1.304;2022-07-11T07:20:30;101137.13;;;25.89;65.17
73817;BME280;62146;53.232;-1.304;2022-07-11T07:22:57;101145.00;;;25.90;64.28
73817;BME280;62146;53.232;-1.304;2022-07-11T07:25:24;101140.16;;;25.96;64.31
73817;BME280;62146;53.232;-1.304;2022-07-11T07:27:50;101135.84;;;25.95;64.19
73817;BME280;62146;53.232;-1.304;2022-07-11T07:30:17;101141.28;;;25.95;64.43
73817;BME280;62146;53.232;-1.304;2022-07-11T07:32:44;101138.91;;;26.02;64.30
73817;BME280;62146;53.232;-1.304;2022-07-11T07:35:11;101140.34;;;26.08;64.43
73817;BME280;62146;53.232;-1.304;2022-07-11T07:37:38;101150.44;;;26.07;64.55
73817;BME280;62146;53.232;-1.304;2022-07-11T07:40:05;101135.03;;;26.03;63.63
73817;BME280;62146;53.232;-1.304;2022-07-11T07:42:32;101143.38;;;26.06;62.65
73817;BME280;62146;53.232;-1.304;2022-07-11T07:44:58;101148.50;;;26.08;62.25
73817;BME280;62146;53.232;-1.304;2022-07-11T07:47:25;101147.72;;;26.07;62.59
73817;BME280;62146;53.232;-1.304;2022-07-11T07:49:52;101143.38;;;26.06;61.39
73817;BME280;62146;53.232;-1.304;2022-07-11T07:52:18;101146.72;;;26.11;61.68
73817;BME280;62146;53.232;-1.304;2022-07-11T07:54:45;101152.50;;;26.18;62.59
73817;BME280;62146;53.232;-1.304;2022-07-11T07:57:13;101148.63;;;26.19;62.29
73817;BME280;62146;53.232;-1.304;2022-07-11T07:59:39;101150.09;;;26.17;62.10
73817;BME280;62146;53.232;-1.304;2022-07-11T08:02:06;101154.41;;;26.18;61.57
73817;BME280;62146;53.232;-1.304;2022-07-11T08:04:33;101151.84;;;26.21;62.04
73817;BME280;62146;53.232;-1.304;2022-07-11T08:07:00;101148.47;;;26.16;61.71
73817;BME280;62146;53.232;-1.304;2022-07-11T08:09:26;101156.97;;;26.23;61.79
73817;BME280;62146;53.232;-1.304;2022-07-11T08:11:53;101147.50;;;26.29;61.47
73817;BME280;62146;53.232;-1.304;2022-07-11T08:14:20;101137.59;;;26.16;62.03
73817;BME280;62146;53.232;-1.304;2022-07-11T08:16:47;101147.88;;;26.10;61.08
73817;BME280;62146;53.232;-1.304;2022-07-11T08:19:15;101142.41;;;26.19;61.10
73817;BME280;62146;53.232;-1.304;2022-07-11T08:21:41;101145.59;;;26.29;61.21
73817;BME280;62146;53.232;-1.304;2022-07-11T08:24:08;101139.97;;;26.34;61.93
73817;BME280;62146;53.232;-1.304;2022-07-11T08:26:35;101141.25;;;26.36;61.76
73817;BME280;62146;53.232;-1.304;2022-07-11T08:29:02;101145.09;;;26.36;60.88
73817;BME280;62146;53.232;-1.304;2022-07-11T08:31:29;101144.44;;;26.38;60.34
73817;BME280;62146;53.232;-1.304;2022-07-11T08:33:56;101141.41;;;26.40;57.80
73817;BME280;62146;53.232;-1.304;2022-07-11T08:36:27;101142.66;;;26.42;56.69
73817;BME280;62146;53.232;-1.304;2022-07-11T08:38:56;101144.44;;;26.47;57.07
73817;BME280;62146;53.232;-1.304;2022-07-11T08:41:23;101142.63;;;26.59;57.54
73817;BME280;62146;53.232;-1.304;2022-07-11T08:43:50;101143.88;;;26.62;57.91
73817;BME280;62146;53.232;-1.304;2022-07-11T08:46:19;101138.31;;;26.58;57.46
73817;BME280;62146;53.232;-1.304;2022-07-11T08:48:47;101132.03;;;26.58;56.83
73817;BME280;62146;53.232;-1.304;2022-07-11T08:51:14;101140.38;;;26.53;56.53
73817;BME280;62146;53.232;-1.304;2022-07-11T08:53:42;101134.59;;;26.54;57.30
73817;BME280;62146;53.232;-1.304;2022-07-11T08:56:12;101140.88;;;26.55;57.84
73817;BME280;62146;53.232;-1.304;2022-07-11T08:58:45;101134.00;;;26.49;58.06
73817;BME280;62146;53.232;-1.304;2022-07-11T09:01:27;101128.69;;;26.52;58.18
73817;BME280;62146;53.232;-1.304;2022-07-11T09:03:55;101123.72;;;26.54;58.70
73817;BME280;62146;53.232;-1.304;2022-07-11T09:06:22;101120.53;;;26.52;58.61
73817;BME280;62146;53.232;-1.304;2022-07-11T09:08:48;101119.41;;;26.53;58.86
73817;BME280;62146;53.232;-1.304;2022-07-11T09:11:15;101119.75;;;26.52;58.84
73817;BME280;62146;53.232;-1.304;2022-07-11T09:13:42;101115.88;;;26.53;58.30
73817;BME280;62146;53.232;-1.304;2022-07-11T09:16:08;101116.53;;;26.50;58.81
73817;BME280;62146;53.232;-1.304;2022-07-11T09:18:38;101110.28;;;26.49;59.53
73817;BME280;62146;53.232;-1.304;2022-07-11T09:21:08;101107.72;;;26.53;59.34
73817;BME280;62146;53.232;-1.304;2022-07-11T09:23:56;101104.19;;;26.52;58.66
73817;BME280;62146;53.232;-1.304;2022-07-11T09:26:43;101105.00;;;26.53;58.97
73817;BME280;62146;53.232;-1.304;2022-07-11T09:29:19;101101.81;;;26.51;57.93
73817;BME280;62146;53.232;-1.304;2022-07-11T09:31:54;101097.31;;;26.55;57.97
73817;BME280;62146;53.232;-1.304;2022-07-11T09:34:22;101098.41;;;26.54;57.69
73817;BME280;62146;53.232;-1.304;2022-07-11T09:36:55;101094.25;;;26.56;57.62
73817;BME280;62146;53.232;-1.304;2022-07-11T09:39:28;101095.53;;;26.59;56.44
73817;BME280;62146;53.232;-1.304;2022-07-11T09:41:56;101090.53;;;26.61;54.43
73817;BME280;62146;53.232;-1.304;2022-07-11T09:44:28;101086.88;;;26.57;54.02
73817;BME280;62146;53.232;-1.304;2022-07-11T09:46:57;101086.44;;;26.55;53.71
73817;BME280;62146;53.232;-1.304;2022-07-11T09:49:37;101083.69;;;26.55;54.31
73817;BME280;62146;53.232;-1.304;2022-07-11T09:52:17;101083.22;;;26.53;52.53
73817;BME280;62146;53.232;-1.304;2022-07-11T09:55:00;101084.66;;;26.50;52.39
73817;BME280;62146;53.232;-1.304;2022-07-11T09:57:29;101082.56;;;26.56;52.32
73817;BME280;62146;53.232;-1.304;2022-07-11T09:59:56;101084.16;;;26.57;52.13
73817;BME280;62146;53.232;-1.304;2022-07-11T10:02:24;101084.31;;;26.60;51.56
73817;BME280;62146;53.232;-1.304;2022-07-11T10:04:51;101080.59;;;26.64;52.42
73817;BME280;62146;53.232;-1.304;2022-07-11T10:07:18;101087.50;;;26.62;54.19
73817;BME280;62146;53.232;-1.304;2022-07-11T10:09:45;101088.63;;;26.61;55.00
73817;BME280;62146;53.232;-1.304;2022-07-11T10:12:13;101091.66;;;26.68;55.50
73817;BME280;62146;53.232;-1.304;2022-07-11T10:14:41;101083.16;;;26.69;55.95
73817;BME280;62146;53.232;-1.304;2022-07-11T10:17:24;101087.66;;;26.74;56.34
73817;BME280;62146;53.232;-1.304;2022-07-11T10:27:39;101075.06;;;26.90;55.80
73817;BME280;62146;53.232;-1.304;2022-07-11T10:30:09;101070.53;;;26.93;55.87
73817;BME280;62146;53.232;-1.304;2022-07-11T10:32:59;101068.59;;;26.94;55.34
73817;BME280;62146;53.232;-1.304;2022-07-11T10:35:29;101067.63;;;26.98;54.71
73817;BME280;62146;53.232;-1.304;2022-07-11T10:37:56;101067.28;;;27.00;54.99
73817;BME280;62146;53.232;-1.304;2022-07-11T10:43:09;101058.59;;;27.06;55.15
73817;BME280;62146;53.232;-1.304;2022-07-11T10:45:56;101064.97;;;27.10;54.92
73817;BME280;62146;53.232;-1.304;2022-07-11T10:48:25;101064.44;;;27.17;54.66
73817;BME280;62146;53.232;-1.304;2022-07-11T10:53:39;101071.63;;;27.21;54.83
73817;BME280;62146;53.232;-1.304;2022-07-11T11:02:03;101069.75;;;27.13;53.73
73817;BME280;62146;53.232;-1.304;2022-07-11T11:04:53;101069.63;;;27.10;53.35
73817;BME280;62146;53.232;-1.304;2022-07-11T11:07:39;101068.22;;;27.04;53.74
73817;BME280;62146;53.232;-1.304;2022-07-11T11:28:36;101059.44;;;26.98;53.51
73817;BME280;62146;53.232;-1.304;2022-07-11T11:31:05;101063.75;;;26.99;53.63
73817;BME280;62146;53.232;-1.304;2022-07-11T11:33:35;101066.31;;;27.04;53.45
73817;BME280;62146;53.232;-1.304;2022-07-11T11:38:30;101053.84;;;27.15;53.99
73817;BME280;62146;53.232;-1.304;2022-07-11T11:40:59;101055.28;;;27.21;53.60
73817;BME280;62146;53.232;-1.304;2022-07-11T11:43:28;101055.84;;;27.26;53.73
73817;BME280;62146;53.232;-1.304;2022-07-11T11:45:54;101063.75;;;27.28;54.04
73817;BME280;62146;53.232;-1.304;2022-07-11T11:48:34;101054.09;;;27.30;54.00
73817;BME280;62146;53.232;-1.304;2022-07-11T11:51:10;101053.63;;;27.28;54.19
73817;BME280;62146;53.232;-1.304;2022-07-11T11:53:44;101057.28;;;27.32;54.48
73817;BME280;62146;53.232;-1.304;2022-07-11T11:56:28;101056.28;;;27.37;53.96
73817;BME280;62146;53.232;-1.304;2022-07-11T12:01:37;101050.38;;;27.35;53.32
73817;BME280;62146;53.232;-1.304;2022-07-11T12:04:06;101042.66;;;27.37;53.52
73817;BME280;62146;53.232;-1.304;2022-07-11T12:06:35;101037.56;;;27.35;53.45
73817;BME280;62146;53.232;-1.304;2022-07-11T12:09:16;101041.88;;;27.36;53.60
73817;BME280;62146;53.232;-1.304;2022-07-11T12:11:46;101042.66;;;27.37;53.40
73817;BME280;62146;53.232;-1.304;2022-07-11T12:14:14;101037.69;;;27.39;53.42
73817;BME280;62146;53.232;-1.304;2022-07-11T12:16:45;101039.63;;;27.38;53.85
73817;BME280;62146;53.232;-1.304;2022-07-11T12:19:21;101035.16;;;27.34;54.07
73817;BME280;62146;53.232;-1.304;2022-07-11T12:21:53;101027.44;;;27.36;53.29
73817;BME280;62146;53.232;-1.304;2022-07-11T12:24:22;101025.84;;;27.35;52.49
73817;BME280;62146;53.232;-1.304;2022-07-11T12:26:49;101029.81;;;27.37;52.92
73817;BME280;62146;53.232;-1.304;2022-07-11T12:29:18;101028.25;;;27.36;52.78
73817;BME280;62146;53.232;-1.304;2022-07-11T12:31:49;101022.00;;;27.36;52.39
73817;BME280;62146;53.232;-1.304;2022-07-11T12:34:18;101028.91;;;27.33;52.90
73817;BME280;62146;53.232;-1.304;2022-07-11T12:36:46;101026.53;;;27.32;53.26
73817;BME280;62146;53.232;-1.304;2022-07-11T12:39:26;101024.59;;;27.32;52.88
73817;BME280;62146;53.232;-1.304;2022-07-11T12:41:54;101021.06;;;27.32;53.36
73817;BME280;62146;53.232;-1.304;2022-07-11T12:44:29;101020.41;;;27.35;53.32
73817;BME280;62146;53.232;-1.304;2022-07-11T12:47:16;101011.09;;;27.36;52.70
73817;BME280;62146;53.232;-1.304;2022-07-11T12:49:43;101012.22;;;27.35;52.98
73817;BME280;62146;53.232;-1.304;2022-07-11T12:52:13;101013.03;;;27.35;52.85
73817;BME280;62146;53.232;-1.304;2022-07-11T12:54:41;101009.16;;;27.36;53.04
73817;BME280;62146;53.232;-1.304;2022-07-11T12:57:08;101012.22;;;27.35;53.12
73817;BME280;62146;53.232;-1.304;2022-07-11T12:59:34;101011.53;;;27.38;53.17
73817;BME280;62146;53.232;-1.304;2022-07-11T13:02:03;101015.53;;;27.40;52.94
73817;BME280;62146;53.232;-1.304;2022-07-11T13:06:58;101006.69;;;27.43;52.52
73817;BME280;62146;53.232;-1.304;2022-07-11T13:09:43;101003.84;;;27.40;52.46
73817;BME280;62146;53.232;-1.304;2022-07-11T13:12:09;100999.19;;;27.40;52.95
73817;BME280;62146;53.232;-1.304;2022-07-11T13:14:36;101002.69;;;27.41;52.59
73817;BME280;62146;53.232;-1.304;2022-07-11T13:17:21;101005.09;;;27.42;52.39
73817;BME280;62146;53.232;-1.304;2022-07-11T13:19:48;100987.94;;;27.42;52.31
73817;BME280;62146;53.232;-1.304;2022-07-11T13:22:15;100979.31;;;27.40;52.67
73817;BME280;62146;53.232;-1.304;2022-07-11T13:24:41;100980.75;;;27.37;52.30
73817;BME280;62146;53.232;-1.304;2022-07-11T13:27:08;100984.97;;;27.35;52.72
73817;BME280;62146;53.232;-1.304;2022-07-11T13:29:34;100990.75;;;27.33;53.11
73817;BME280;62146;53.232;-1.304;2022-07-11T13:32:01;100989.94;;;27.33;52.72